sensor_id;sensor_type;location;lat;lon;timestamp;P1;durP1;ratioP1;P2;durP2;ratioP2
84820;SDS011;75463;50.988;11.332;2024-02-28T00:01:58;37.45;;;17.88;;
84820;SDS011;75463;50.988;11.332;2024-02-28T00:04:24;36.05;;;17.85;;
84820;SDS011;75463;50.988;11.332;2024-02-28T00:06:49;38.20;;;15.95;;
84820;SDS011;75463;50.988;11.332;2024-02-28T00:09:15;33.50;;;15.52;;
84820;SDS011;75463;50.988;11.332;2024-02-28T00:11:43;40.60;;;16.80;;
84820;SDS011;75463;50.988;11.332;2024-02-28T00:14:12;36.88;;;16.88;;
84820;SDS011;75463;50.988;11.332;2024-02-28T00:16:40;34.33;;;16.40;;
84820;SDS011;75463;50.988;11.332;2024-02-28T00:19:06;36.22;;;15.82;;
84820;SDS011;75463;50.988;11.332;2024-02-28T00:21:31;40.40;;;17.63;;
84820;SDS011;75463;50.988;11.332;2024-02-28T00:23:57;43.22;;;17.67;;
84820;SDS011;75463;50.988;11.332;2024-02-28T00:26:22;40.77;;;17.60;;
84820;SDS011;75463;50.988;11.332;2024-02-28T00:28:47;38.93;;;16.00;;
84820;SDS011;75463;50.988;11.332;2024-02-28T00:31:12;41.80;;;16.90;;
84820;SDS011;75463;50.988;11.332;2024-02-28T00:33:38;39.37;;;16.40;;
84820;SDS011;75463;50.988;11.332;2024-02-28T00:36:03;40.80;;;16.87;;
84820;SDS011;75463;50.988;11.332;2024-02-28T00:38:29;42.47;;;17.85;;
84820;SDS011;75463;50.988;11.332;2024-02-28T00:40:54;42.00;;;17.27;;
84820;SDS011;75463;50.988;11.332;2024-02-28T00:43:19;39.83;;;18.13;;
84820;SDS011;75463;50.988;11.332;2024-02-28T00:45:44;51.80;;;18.65;;
84820;SDS011;75463;50.988;11.332;2024-02-28T00:48:10;41.92;;;17.75;;
84820;SDS011;75463;50.988;11.332;2024-02-28T00:50:35;48.72;;;17.98;;
84820;SDS011;75463;50.988;11.332;2024-02-28T00:53:00;50.08;;;17.70;;
84820;SDS011;75463;50.988;11.332;2024-02-28T00:55:27;42.55;;;16.33;;
84820;SDS011;75463;50.988;11.332;2024-02-28T00:57:53;44.15;;;17.30;;
84820;SDS011;75463;50.988;11.332;2024-02-28T01:00:18;50.40;;;17.80;;
84820;SDS011;75463;50.988;11.332;2024-02-28T01:02:44;47.55;;;18.67;;
84820;SDS011;75463;50.988;11.332;2024-02-28T01:05:09;41.45;;;16.38;;
84820;SDS011;75463;50.988;11.332;2024-02-28T01:07:34;43.15;;;18.80;;
84820;SDS011;75463;50.988;11.332;2024-02-28T01:10:00;43.67;;;16.65;;
84820;SDS011;75463;50.988;11.332;2024-02-28T01:12:25;40.53;;;17.55;;
84820;SDS011;75463;50.988;11.332;2024-02-28T01:14:51;39.97;;;16.90;;
84820;SDS011;75463;50.988;11.332;2024-02-28T01:17:16;45.28;;;17.42;;
84820;SDS011;75463;50.988;11.332;2024-02-28T01:19:41;51.60;;;18.10;;
84820;SDS011;75463;50.988;11.332;2024-02-28T01:22:07;39.73;;;17.10;;
84820;SDS011;75463;50.988;11.332;2024-02-28T01:24:33;43.05;;;18.00;;
84820;SDS011;75463;50.988;11.332;2024-02-28T01:26:59;45.97;;;17.10;;
84820;SDS011;75463;50.988;11.332;2024-02-28T01:29:24;42.75;;;17.40;;
84820;SDS011;75463;50.988;11.332;2024-02-28T01:31:50;45.72;;;18.58;;
84820;SDS011;75463;50.988;11.332;2024-02-28T01:34:15;39.83;;;15.80;;
84820;SDS011;75463;50.988;11.332;2024-02-28T01:36:41;39.05;;;16.48;;
84820;SDS011;75463;50.988;11.332;2024-02-28T01:39:06;41.80;;;17.42;;
84820;SDS011;75463;50.988;11.332;2024-02-28T01:41:31;37.50;;;18.35;;
84820;SDS011;75463;50.988;11.332;2024-02-28T01:43:56;47.13;;;16.77;;
84820;SDS011;75463;50.988;11.332;2024-02-28T01:48:54;38.85;;;17.58;;
84820;SDS011;75463;50.988;11.332;2024-02-28T01:51:21;43.65;;;17.02;;
84820;SDS011;75463;50.988;11.332;2024-02-28T01:53:47;35.55;;;16.92;;
84820;SDS011;75463;50.988;11.332;2024-02-28T01:56:14;41.08;;;15.80;;
84820;SDS011;75463;50.988;11.332;2024-02-28T01:58:41;35.90;;;15.95;;
84820;SDS011;75463;50.988;11.332;2024-02-28T02:01:08;33.45;;;15.20;;
84820;SDS011;75463;50.988;11.332;2024-02-28T02:03:35;40.35;;;16.00;;
84820;SDS011;75463;50.988;11.332;2024-02-28T02:06:01;36.33;;;15.30;;
84820;SDS011;75463;50.988;11.332;2024-02-28T02:08:28;38.80;;;15.38;;
84820;SDS011;75463;50.988;11.332;2024-02-28T02:10:54;34.90;;;17.33;;
84820;SDS011;75463;50.988;11.332;2024-02-28T02:13:19;32.83;;;16.92;;
84820;SDS011;75463;50.988;11.332;2024-02-28T02:15:44;37.72;;;15.68;;
84820;SDS011;75463;50.988;11.332;2024-02-28T02:18:10;35.03;;;15.90;;
84820;SDS011;75463;50.988;11.332;2024-02-28T02:20:36;38.58;;;15.90;;
84820;SDS011;75463;50.988;11.332;2024-02-28T02:23:05;36.95;;;16.55;;
84820;SDS011;75463;50.988;11.332;2024-02-28T02:25:31;38.75;;;16.95;;
84820;SDS011;75463;50.988;11.332;2024-02-28T02:27:56;40.08;;;16.42;;
84820;SDS011;75463;50.988;11.332;2024-02-28T02:30:21;41.92;;;17.13;;
84820;SDS011;75463;50.988;11.332;2024-02-28T02:32:47;39.28;;;16.55;;
84820;SDS011;75463;50.988;11.332;2024-02-28T02:35:12;32.60;;;15.93;;
84820;SDS011;75463;50.988;11.332;2024-02-28T02:37:40;46.22;;;17.33;;
84820;SDS011;75463;50.988;11.332;2024-02-28T02:40:09;40.33;;;16.80;;
84820;SDS011;75463;50.988;11.332;2024-02-28T02:42:35;42.92;;;18.02;;
84820;SDS011;75463;50.988;11.332;2024-02-28T02:45:00;38.40;;;17.67;;
84820;SDS011;75463;50.988;11.332;2024-02-28T02:47:26;47.13;;;19.05;;
84820;SDS011;75463;50.988;11.332;2024-02-28T02:49:51;43.67;;;16.57;;
84820;SDS011;75463;50.988;11.332;2024-02-28T02:52:16;45.17;;;16.30;;
84820;SDS011;75463;50.988;11.332;2024-02-28T02:54:42;45.07;;;16.60;;
84820;SDS011;75463;50.988;11.332;2024-02-28T02:57:07;47.30;;;18.67;;
84820;SDS011;75463;50.988;11.332;2024-02-28T02:59:32;46.03;;;17.52;;
84820;SDS011;75463;50.988;11.332;2024-02-28T03:01:58;47.67;;;18.77;;
84820;SDS011;75463;50.988;11.332;2024-02-28T03:04:23;46.22;;;17.27;;
84820;SDS011;75463;50.988;11.332;2024-02-28T03:06:48;40.67;;;15.30;;
84820;SDS011;75463;50.988;11.332;2024-02-28T03:09:13;48.83;;;19.27;;
84820;SDS011;75463;50.988;11.332;2024-02-28T03:11:39;46.30;;;17.65;;
84820;SDS011;75463;50.988;11.332;2024-02-28T03:14:04;47.30;;;18.23;;
84820;SDS011;75463;50.988;11.332;2024-02-28T03:16:30;43.70;;;17.98;;
84820;SDS011;75463;50.988;11.332;2024-02-28T03:18:55;49.97;;;19.48;;
84820;SDS011;75463;50.988;11.332;2024-02-28T03:21:21;48.00;;;17.88;;
84820;SDS011;75463;50.988;11.332;2024-02-28T03:23:46;41.13;;;17.33;;
84820;SDS011;75463;50.988;11.332;2024-02-28T03:26:12;49.38;;;17.42;;
84820;SDS011;75463;50.988;11.332;2024-02-28T03:28:37;46.53;;;17.40;;
84820;SDS011;75463;50.988;11.332;2024-02-28T03:31:02;48.42;;;18.92;;
84820;SDS011;75463;50.988;11.332;2024-02-28T03:33:28;46.85;;;17.35;;
84820;SDS011;75463;50.988;11.332;2024-02-28T03:35:54;45.83;;;17.33;;
84820;SDS011;75463;50.988;11.332;2024-02-28T03:38:19;41.60;;;16.73;;
84820;SDS011;75463;50.988;11.332;2024-02-28T03:40:45;47.25;;;18.48;;
84820;SDS011;75463;50.988;11.332;2024-02-28T03:43:10;40.42;;;15.60;;
84820;SDS011;75463;50.988;11.332;2024-02-28T03:45:37;44.33;;;17.98;;
84820;SDS011;75463;50.988;11.332;2024-02-28T03:48:04;43.25;;;17.05;;
84820;SDS011;75463;50.988;11.332;2024-02-28T03:50:30;35.20;;;15.65;;
84820;SDS011;75463;50.988;11.332;2024-02-28T03:52:55;40.70;;;16.30;;
84820;SDS011;75463;50.988;11.332;2024-02-28T03:55:20;35.15;;;15.70;;
84820;SDS011;75463;50.988;11.332;2024-02-28T03:57:48;39.95;;;17.77;;
84820;SDS011;75463;50.988;11.332;2024-02-28T04:00:16;39.25;;;16.77;;
84820;SDS011;75463;50.988;11.332;2024-02-28T04:02:42;41.30;;;17.75;;
84820;SDS011;75463;50.988;11.332;2024-02-28T04:05:07;44.97;;;17.50;;
84820;SDS011;75463;50.988;11.332;2024-02-28T04:07:33;46.22;;;17.67;;
84820;SDS011;75463;50.988;11.332;2024-02-28T04:09:58;44.38;;;17.30;;
84820;SDS011;75463;50.988;11.332;2024-02-28T04:12:24;44.58;;;18.42;;
84820;SDS011;75463;50.988;11.332;2024-02-28T04:14:49;44.38;;;17.75;;
84820;SDS011;75463;50.988;11.332;2024-02-28T04:17:14;42.15;;;17.38;;
84820;SDS011;75463;50.988;11.332;2024-02-28T04:19:40;44.90;;;16.85;;
84820;SDS011;75463;50.988;11.332;2024-02-28T04:22:05;39.88;;;16.23;;
84820;SDS011;75463;50.988;11.332;2024-02-28T04:24:30;46.85;;;17.35;;
84820;SDS011;75463;50.988;11.332;2024-02-28T04:26:57;41.53;;;18.15;;
84820;SDS011;75463;50.988;11.332;2024-02-28T04:29:24;39.85;;;16.67;;
84820;SDS011;75463;50.988;11.332;2024-02-28T04:31:49;41.50;;;17.40;;
84820;SDS011;75463;50.988;11.332;2024-02-28T04:34:15;38.77;;;17.03;;
84820;SDS011;75463;50.988;11.332;2024-02-28T04:36:40;42.57;;;17.87;;
84820;SDS011;75463;50.988;11.332;2024-02-28T04:39:05;45.40;;;17.73;;
84820;SDS011;75463;50.988;11.332;2024-02-28T04:41:32;44.70;;;17.25;;
84820;SDS011;75463;50.988;11.332;2024-02-28T04:43:58;34.42;;;16.73;;
84820;SDS011;75463;50.988;11.332;2024-02-28T04:46:24;40.28;;;16.45;;
84820;SDS011;75463;50.988;11.332;2024-02-28T04:48:49;36.13;;;18.00;;
84820;SDS011;75463;50.988;11.332;2024-02-28T04:51:15;38.15;;;16.77;;
84820;SDS011;75463;50.988;11.332;2024-02-28T04:53:42;44.72;;;18.05;;
84820;SDS011;75463;50.988;11.332;2024-02-28T04:56:08;39.00;;;17.25;;
84820;SDS011;75463;50.988;11.332;2024-02-28T04:58:33;40.30;;;18.00;;
84820;SDS011;75463;50.988;11.332;2024-02-28T05:00:58;41.58;;;16.48;;
84820;SDS011;75463;50.988;11.332;2024-02-28T05:03:24;38.45;;;17.05;;
84820;SDS011;75463;50.988;11.332;2024-02-28T05:05:50;38.97;;;16.40;;
84820;SDS011;75463;50.988;11.332;2024-02-28T05:08:17;37.17;;;16.55;;
84820;SDS011;75463;50.988;11.332;2024-02-28T05:10:44;36.45;;;15.98;;
84820;SDS011;75463;50.988;11.332;2024-02-28T05:13:10;37.63;;;18.57;;
84820;SDS011;75463;50.988;11.332;2024-02-28T05:15:35;42.53;;;16.97;;
84820;SDS011;75463;50.988;11.332;2024-02-28T05:18:00;39.72;;;16.70;;
84820;SDS011;75463;50.988;11.332;2024-02-28T05:20:25;44.67;;;18.17;;
84820;SDS011;75463;50.988;11.332;2024-02-28T05:22:51;34.75;;;16.13;;
84820;SDS011;75463;50.988;11.332;2024-02-28T05:25:16;37.28;;;18.20;;
84820;SDS011;75463;50.988;11.332;2024-02-28T05:27:41;41.60;;;16.88;;
84820;SDS011;75463;50.988;11.332;2024-02-28T05:30:07;38.80;;;17.17;;
84820;SDS011;75463;50.988;11.332;2024-02-28T05:32:33;43.78;;;17.83;;
84820;SDS011;75463;50.988;11.332;2024-02-28T05:34:58;34.35;;;18.55;;
84820;SDS011;75463;50.988;11.332;2024-02-28T05:37:23;36.92;;;16.13;;
84820;SDS011;75463;50.988;11.332;2024-02-28T05:39:49;45.13;;;18.38;;
84820;SDS011;75463;50.988;11.332;2024-02-28T05:42:15;39.13;;;16.33;;
84820;SDS011;75463;50.988;11.332;2024-02-28T05:44:46;37.83;;;16.33;;
84820;SDS011;75463;50.988;11.332;2024-02-28T05:47:12;39.58;;;17.98;;
84820;SDS011;75463;50.988;11.332;2024-02-28T05:49:38;35.20;;;15.00;;
84820;SDS011;75463;50.988;11.332;2024-02-28T05:52:04;39.75;;;16.70;;
84820;SDS011;75463;50.988;11.332;2024-02-28T05:54:29;42.78;;;19.85;;
84820;SDS011;75463;50.988;11.332;2024-02-28T05:56:55;40.15;;;17.27;;
84820;SDS011;75463;50.988;11.332;2024-02-28T05:59:20;39.73;;;16.60;;
84820;SDS011;75463;50.988;11.332;2024-02-28T06:01:46;38.60;;;16.73;;
84820;SDS011;75463;50.988;11.332;2024-02-28T06:04:11;35.47;;;16.20;;
84820;SDS011;75463;50.988;11.332;2024-02-28T06:06:37;33.92;;;15.73;;
84820;SDS011;75463;50.988;11.332;2024-02-28T06:09:03;41.75;;;16.55;;
84820;SDS011;75463;50.988;11.332;2024-02-28T06:11:28;46.78;;;19.08;;
84820;SDS011;75463;50.988;11.332;2024-02-28T06:13:53;58.40;;;26.15;;
84820;SDS011;75463;50.988;11.332;2024-02-28T06:16:19;68.05;;;27.13;;
84820;SDS011;75463;50.988;11.332;2024-02-28T06:18:44;63.40;;;25.83;;
84820;SDS011;75463;50.988;11.332;2024-02-28T06:21:09;55.10;;;23.88;;
84820;SDS011;75463;50.988;11.332;2024-02-28T06:23:35;46.20;;;19.55;;
84820;SDS011;75463;50.988;11.332;2024-02-28T06:26:00;33.35;;;14.77;;
84820;SDS011;75463;50.988;11.332;2024-02-28T06:28:25;33.58;;;15.68;;
84820;SDS011;75463;50.988;11.332;2024-02-28T06:30:51;27.23;;;14.27;;
84820;SDS011;75463;50.988;11.332;2024-02-28T06:33:17;29.23;;;13.70;;
84820;SDS011;75463;50.988;11.332;2024-02-28T06:35:43;30.00;;;14.25;;
84820;SDS011;75463;50.988;11.332;2024-02-28T06:38:09;26.77;;;13.35;;
84820;SDS011;75463;50.988;11.332;2024-02-28T06:40:34;29.38;;;14.00;;
84820;SDS011;75463;50.988;11.332;2024-02-28T06:43:00;27.55;;;13.13;;
84820;SDS011;75463;50.988;11.332;2024-02-28T06:45:25;23.98;;;13.48;;
84820;SDS011;75463;50.988;11.332;2024-02-28T06:47:51;21.88;;;12.43;;
84820;SDS011;75463;50.988;11.332;2024-02-28T06:50:16;22.00;;;12.27;;
84820;SDS011;75463;50.988;11.332;2024-02-28T06:52:42;24.00;;;12.32;;
84820;SDS011;75463;50.988;11.332;2024-02-28T06:55:07;26.55;;;13.07;;
84820;SDS011;75463;50.988;11.332;2024-02-28T07:00:02;20.85;;;10.60;;
84820;SDS011;75463;50.988;11.332;2024-02-28T07:02:28;20.92;;;11.32;;
84820;SDS011;75463;50.988;11.332;2024-02-28T07:04:53;22.27;;;11.85;;
84820;SDS011;75463;50.988;11.332;2024-02-28T07:07:18;20.93;;;10.73;;
84820;SDS011;75463;50.988;11.332;2024-02-28T07:09:44;21.77;;;10.73;;
84820;SDS011;75463;50.988;11.332;2024-02-28T07:12:09;17.33;;;11.00;;
84820;SDS011;75463;50.988;11.332;2024-02-28T07:14:34;21.50;;;12.17;;
84820;SDS011;75463;50.988;11.332;2024-02-28T07:17:00;20.20;;;10.82;;
84820;SDS011;75463;50.988;11.332;2024-02-28T07:19:25;22.33;;;10.60;;
84820;SDS011;75463;50.988;11.332;2024-02-28T07:21:50;20.13;;;10.77;;
84820;SDS011;75463;50.988;11.332;2024-02-28T07:24:16;20.20;;;12.38;;
84820;SDS011;75463;50.988;11.332;2024-02-28T07:26:41;25.85;;;17.27;;
84820;SDS011;75463;50.988;11.332;2024-02-28T07:29:07;21.50;;;13.45;;
84820;SDS011;75463;50.988;11.332;2024-02-28T07:31:32;21.73;;;11.73;;
84820;SDS011;75463;50.988;11.332;2024-02-28T07:33:57;22.33;;;14.25;;
84820;SDS011;75463;50.988;11.332;2024-02-28T07:36:22;19.73;;;10.70;;
84820;SDS011;75463;50.988;11.332;2024-02-28T07:38:48;20.75;;;11.07;;
84820;SDS011;75463;50.988;11.332;2024-02-28T07:41:13;22.13;;;12.63;;
84820;SDS011;75463;50.988;11.332;2024-02-28T07:43:41;18.77;;;10.60;;
84820;SDS011;75463;50.988;11.332;2024-02-28T07:46:08;17.80;;;10.25;;
84820;SDS011;75463;50.988;11.332;2024-02-28T07:48:35;19.35;;;10.15;;
84820;SDS011;75463;50.988;11.332;2024-02-28T07:51:03;21.85;;;11.20;;
84820;SDS011;75463;50.988;11.332;2024-02-28T07:53:30;20.13;;;10.30;;
84820;SDS011;75463;50.988;11.332;2024-02-28T07:55:55;20.67;;;10.65;;
84820;SDS011;75463;50.988;11.332;2024-02-28T07:58:21;17.40;;;9.95;;
84820;SDS011;75463;50.988;11.332;2024-02-28T08:00:46;18.60;;;10.02;;
84820;SDS011;75463;50.988;11.332;2024-02-28T08:03:11;17.20;;;9.77;;
84820;SDS011;75463;50.988;11.332;2024-02-28T08:05:37;16.53;;;9.83;;
84820;SDS011;75463;50.988;11.332;2024-02-28T08:08:07;19.35;;;10.02;;
84820;SDS011;75463;50.988;11.332;2024-02-28T08:10:33;17.67;;;11.40;;
84820;SDS011;75463;50.988;11.332;2024-02-28T08:12:58;16.63;;;10.38;;
84820;SDS011;75463;50.988;11.332;2024-02-28T08:15:24;14.48;;;8.45;;
84820;SDS011;75463;50.988;11.332;2024-02-28T08:17:49;14.77;;;8.93;;
84820;SDS011;75463;50.988;11.332;2024-02-28T08:20:14;17.38;;;10.63;;
84820;SDS011;75463;50.988;11.332;2024-02-28T08:22:40;16.10;;;9.82;;
84820;SDS011;75463;50.988;11.332;2024-02-28T08:25:05;16.08;;;9.88;;
84820;SDS011;75463;50.988;11.332;2024-02-28T08:27:31;16.73;;;10.73;;
84820;SDS011;75463;50.988;11.332;2024-02-28T08:29:58;15.88;;;9.75;;
84820;SDS011;75463;50.988;11.332;2024-02-28T08:32:23;16.08;;;9.23;;
84820;SDS011;75463;50.988;11.332;2024-02-28T08:34:48;15.67;;;9.70;;
84820;SDS011;75463;50.988;11.332;2024-02-28T08:37:14;13.77;;;9.35;;
84820;SDS011;75463;50.988;11.332;2024-02-28T08:39:39;18.17;;;10.60;;
84820;SDS011;75463;50.988;11.332;2024-02-28T08:42:05;13.80;;;9.27;;
84820;SDS011;75463;50.988;11.332;2024-02-28T08:44:30;16.42;;;10.07;;
84820;SDS011;75463;50.988;11.332;2024-02-28T08:46:56;17.63;;;10.45;;
84820;SDS011;75463;50.988;11.332;2024-02-28T08:49:21;15.75;;;9.50;;
84820;SDS011;75463;50.988;11.332;2024-02-28T08:51:47;15.52;;;9.68;;
84820;SDS011;75463;50.988;11.332;2024-02-28T08:54:13;18.00;;;10.23;;
84820;SDS011;75463;50.988;11.332;2024-02-28T08:56:38;16.52;;;10.35;;
84820;SDS011;75463;50.988;11.332;2024-02-28T08:59:04;18.98;;;10.55;;
84820;SDS011;75463;50.988;11.332;2024-02-28T09:01:29;17.17;;;9.82;;
84820;SDS011;75463;50.988;11.332;2024-02-28T09:03:54;17.83;;;10.57;;
84820;SDS011;75463;50.988;11.332;2024-02-28T09:06:20;17.08;;;10.63;;
84820;SDS011;75463;50.988;11.332;2024-02-28T09:08:45;16.43;;;10.83;;
84820;SDS011;75463;50.988;11.332;2024-02-28T09:11:10;16.58;;;10.18;;
84820;SDS011;75463;50.988;11.332;2024-02-28T09:13:36;17.50;;;10.88;;
84820;SDS011;75463;50.988;11.332;2024-02-28T09:16:01;18.35;;;10.43;;
84820;SDS011;75463;50.988;11.332;2024-02-28T09:18:27;17.77;;;11.43;;
84820;SDS011;75463;50.988;11.332;2024-02-28T09:20:52;15.02;;;9.15;;
84820;SDS011;75463;50.988;11.332;2024-02-28T09:23:18;15.38;;;10.20;;
84820;SDS011;75463;50.988;11.332;2024-02-28T09:25:43;17.35;;;10.13;;
84820;SDS011;75463;50.988;11.332;2024-02-28T09:28:09;16.52;;;10.23;;
84820;SDS011;75463;50.988;11.332;2024-02-28T09:30:37;15.77;;;10.68;;
84820;SDS011;75463;50.988;11.332;2024-02-28T09:33:03;18.17;;;10.82;;
84820;SDS011;75463;50.988;11.332;2024-02-28T09:35:28;15.25;;;9.57;;
84820;SDS011;75463;50.988;11.332;2024-02-28T09:37:53;13.90;;;9.80;;
84820;SDS011;75463;50.988;11.332;2024-02-28T09:40:19;14.80;;;10.07;;
84820;SDS011;75463;50.988;11.332;2024-02-28T09:42:46;16.38;;;10.27;;
84820;SDS011;75463;50.988;11.332;2024-02-28T09:45:33;16.58;;;10.55;;
84820;SDS011;75463;50.988;11.332;2024-02-28T09:48:00;16.80;;;10.13;;
84820;SDS011;75463;50.988;11.332;2024-02-28T09:50:26;15.82;;;11.23;;
84820;SDS011;75463;50.988;11.332;2024-02-28T09:52:53;16.42;;;10.05;;
84820;SDS011;75463;50.988;11.332;2024-02-28T09:55:19;15.02;;;10.68;;
84820;SDS011;75463;50.988;11.332;2024-02-28T09:57:47;14.13;;;9.70;;
84820;SDS011;75463;50.988;11.332;2024-02-28T10:00:13;15.90;;;10.15;;
84820;SDS011;75463;50.988;11.332;2024-02-28T10:02:41;15.30;;;9.38;;
84820;SDS011;75463;50.988;11.332;2024-02-28T10:05:08;18.17;;;12.38;;
84820;SDS011;75463;50.988;11.332;2024-02-28T10:07:34;16.23;;;10.20;;
84820;SDS011;75463;50.988;11.332;2024-02-28T10:10:00;17.70;;;10.80;;
84820;SDS011;75463;50.988;11.332;2024-02-28T10:12:25;15.80;;;10.55;;
84820;SDS011;75463;50.988;11.332;2024-02-28T10:14:51;15.00;;;10.38;;
84820;SDS011;75463;50.988;11.332;2024-02-28T10:17:16;17.45;;;10.57;;
84820;SDS011;75463;50.988;11.332;2024-02-28T10:19:41;17.02;;;11.48;;
84820;SDS011;75463;50.988;11.332;2024-02-28T10:22:07;19.00;;;11.68;;
84820;SDS011;75463;50.988;11.332;2024-02-28T10:24:35;18.58;;;11.75;;
84820;SDS011;75463;50.988;11.332;2024-02-28T10:27:02;19.50;;;11.63;;
84820;SDS011;75463;50.988;11.332;2024-02-28T10:29:28;18.17;;;11.13;;
84820;SDS011;75463;50.988;11.332;2024-02-28T10:31:57;19.42;;;12.13;;
84820;SDS011;75463;50.988;11.332;2024-02-28T10:34:22;21.17;;;12.98;;
84820;SDS011;75463;50.988;11.332;2024-02-28T10:36:48;18.67;;;12.82;;
84820;SDS011;75463;50.988;11.332;2024-02-28T10:39:14;18.67;;;11.85;;
84820;SDS011;75463;50.988;11.332;2024-02-28T10:41:40;17.77;;;11.45;;
84820;SDS011;75463;50.988;11.332;2024-02-28T10:44:06;19.15;;;11.63;;
84820;SDS011;75463;50.988;11.332;2024-02-28T10:46:32;17.60;;;12.00;;
84820;SDS011;75463;50.988;11.332;2024-02-28T10:48:57;20.63;;;13.18;;
84820;SDS011;75463;50.988;11.332;2024-02-28T10:51:23;18.48;;;11.95;;
84820;SDS011;75463;50.988;11.332;2024-02-28T10:54:13;17.48;;;11.63;;
84820;SDS011;75463;50.988;11.332;2024-02-28T10:56:41;15.95;;;10.65;;
84820;SDS011;75463;50.988;11.332;2024-02-28T10:59:11;17.30;;;10.95;;
84820;SDS011;75463;50.988;11.332;2024-02-28T11:01:39;18.83;;;12.05;;
84820;SDS011;75463;50.988;11.332;2024-02-28T11:04:07;17.75;;;11.55;;
84820;SDS011;75463;50.988;11.332;2024-02-28T11:06:33;16.27;;;10.68;;
84820;SDS011;75463;50.988;11.332;2024-02-28T11:08:59;18.92;;;12.32;;
84820;SDS011;75463;50.988;11.332;2024-02-28T11:11:29;18.88;;;12.07;;
84820;SDS011;75463;50.988;11.332;2024-02-28T11:13:56;17.63;;;11.27;;
84820;SDS011;75463;50.988;11.332;2024-02-28T11:16:29;17.90;;;11.02;;
84820;SDS011;75463;50.988;11.332;2024-02-28T11:18:57;16.42;;;11.02;;
84820;SDS011;75463;50.988;11.332;2024-02-28T11:21:24;17.27;;;10.43;;
84820;SDS011;75463;50.988;11.332;2024-02-28T11:23:50;18.05;;;11.15;;
84820;SDS011;75463;50.988;11.332;2024-02-28T11:26:16;20.73;;;12.15;;
84820;SDS011;75463;50.988;11.332;2024-02-28T11:28:42;17.17;;;10.52;;
84820;SDS011;75463;50.988;11.332;2024-02-28T11:31:08;17.80;;;11.57;;
84820;SDS011;75463;50.988;11.332;2024-02-28T11:33:35;18.80;;;11.63;;
84820;SDS011;75463;50.988;11.332;2024-02-28T11:36:01;20.13;;;11.80;;
84820;SDS011;75463;50.988;11.332;2024-02-28T11:38:28;18.02;;;10.77;;
84820;SDS011;75463;50.988;11.332;2024-02-28T11:40:54;21.23;;;12.13;;
84820;SDS011;75463;50.988;11.332;2024-02-28T11:43:20;15.70;;;10.77;;
84820;SDS011;75463;50.988;11.332;2024-02-28T11:45:46;18.75;;;10.95;;
84820;SDS011;75463;50.988;11.332;2024-02-28T11:48:14;19.20;;;11.73;;
84820;SDS011;75463;50.988;11.332;2024-02-28T11:50:40;20.85;;;12.27;;
84820;SDS011;75463;50.988;11.332;2024-02-28T11:53:06;19.50;;;10.10;;
84820;SDS011;75463;50.988;11.332;2024-02-28T11:55:32;17.15;;;10.30;;
84820;SDS011;75463;50.988;11.332;2024-02-28T11:57:57;16.70;;;10.45;;
84820;SDS011;75463;50.988;11.332;2024-02-28T12:00:23;15.90;;;10.07;;
84820;SDS011;75463;50.988;11.332;2024-02-28T12:02:48;18.57;;;11.10;;
84820;SDS011;75463;50.988;11.332;2024-02-28T12:05:13;16.88;;;10.45;;
84820;SDS011;75463;50.988;11.332;2024-02-28T12:07:39;15.27;;;8.60;;
84820;SDS011;75463;50.988;11.332;2024-02-28T12:10:04;16.77;;;9.98;;
84820;SDS011;75463;50.988;11.332;2024-02-28T12:12:31;15.07;;;9.65;;
84820;SDS011;75463;50.988;11.332;2024-02-28T12:15:00;17.25;;;9.07;;
84820;SDS011;75463;50.988;11.332;2024-02-28T12:17:28;19.45;;;9.55;;
84820;SDS011;75463;50.988;11.332;2024-02-28T12:19:53;20.88;;;10.90;;
84820;SDS011;75463;50.988;11.332;2024-02-28T12:22:19;17.40;;;9.52;;
84820;SDS011;75463;50.988;11.332;2024-02-28T12:24:45;19.73;;;11.95;;
84820;SDS011;75463;50.988;11.332;2024-02-28T12:27:10;21.65;;;11.70;;
84820;SDS011;75463;50.988;11.332;2024-02-28T12:29:35;16.00;;;9.07;;
84820;SDS011;75463;50.988;11.332;2024-02-28T12:32:01;16.33;;;9.90;;
84820;SDS011;75463;50.988;11.332;2024-02-28T12:34:27;14.68;;;9.45;;
84820;SDS011;75463;50.988;11.332;2024-02-28T12:36:52;14.10;;;8.65;;
84820;SDS011;75463;50.988;11.332;2024-02-28T12:39:18;12.65;;;8.00;;
84820;SDS011;75463;50.988;11.332;2024-02-28T12:41:44;13.77;;;8.05;;
84820;SDS011;75463;50.988;11.332;2024-02-28T12:44:09;15.95;;;8.77;;
84820;SDS011;75463;50.988;11.332;2024-02-28T12:46:35;13.10;;;7.97;;
84820;SDS011;75463;50.988;11.332;2024-02-28T12:49:01;12.88;;;7.63;;
84820;SDS011;75463;50.988;11.332;2024-02-28T12:51:40;13.35;;;7.30;;
84820;SDS011;75463;50.988;11.332;2024-02-28T12:54:07;11.50;;;7.05;;
84820;SDS011;75463;50.988;11.332;2024-02-28T12:56:33;11.88;;;6.43;;
84820;SDS011;75463;50.988;11.332;2024-02-28T12:59:00;11.82;;;6.68;;
84820;SDS011;75463;50.988;11.332;2024-02-28T13:01:26;10.90;;;6.53;;
84820;SDS011;75463;50.988;11.332;2024-02-28T13:03:52;13.63;;;7.50;;
84820;SDS011;75463;50.988;11.332;2024-02-28T13:06:17;12.57;;;7.53;;
84820;SDS011;75463;50.988;11.332;2024-02-28T13:08:43;12.23;;;5.80;;
84820;SDS011;75463;50.988;11.332;2024-02-28T13:11:09;8.88;;;5.68;;
84820;SDS011;75463;50.988;11.332;2024-02-28T13:13:35;9.80;;;5.53;;
84820;SDS011;75463;50.988;11.332;2024-02-28T13:16:00;12.23;;;6.50;;
84820;SDS011;75463;50.988;11.332;2024-02-28T13:18:25;10.35;;;6.40;;
84820;SDS011;75463;50.988;11.332;2024-02-28T13:20:51;14.15;;;8.43;;
84820;SDS011;75463;50.988;11.332;2024-02-28T13:23:17;12.57;;;5.97;;
84820;SDS011;75463;50.988;11.332;2024-02-28T13:25:43;12.98;;;6.68;;
84820;SDS011;75463;50.988;11.332;2024-02-28T13:28:09;10.32;;;5.80;;
84820;SDS011;75463;50.988;11.332;2024-02-28T13:30:34;9.13;;;5.50;;
84820;SDS011;75463;50.988;11.332;2024-02-28T13:33:01;11.93;;;5.78;;
84820;SDS011;75463;50.988;11.332;2024-02-28T13:35:27;8.80;;;4.85;;
84820;SDS011;75463;50.988;11.332;2024-02-28T13:37:53;8.70;;;5.28;;
84820;SDS011;75463;50.988;11.332;2024-02-28T13:40:19;12.13;;;5.53;;
84820;SDS011;75463;50.988;11.332;2024-02-28T13:42:44;11.02;;;6.22;;
84820;SDS011;75463;50.988;11.332;2024-02-28T13:45:10;11.43;;;5.97;;
84820;SDS011;75463;50.988;11.332;2024-02-28T13:47:36;11.93;;;6.55;;
84820;SDS011;75463;50.988;11.332;2024-02-28T13:50:02;12.02;;;6.88;;
84820;SDS011;75463;50.988;11.332;2024-02-28T13:52:28;13.10;;;7.47;;
84820;SDS011;75463;50.988;11.332;2024-02-28T13:54:53;14.15;;;6.70;;
84820;SDS011;75463;50.988;11.332;2024-02-28T13:57:19;12.35;;;7.60;;
84820;SDS011;75463;50.988;11.332;2024-02-28T13:59:44;14.95;;;6.43;;
84820;SDS011;75463;50.988;11.332;2024-02-28T14:02:13;10.32;;;6.00;;
84820;SDS011;75463;50.988;11.332;2024-02-28T14:04:40;12.55;;;5.78;;
84820;SDS011;75463;50.988;11.332;2024-02-28T14:07:07;12.45;;;6.43;;
84820;SDS011;75463;50.988;11.332;2024-02-28T14:09:33;10.18;;;5.20;;